Terminal Aerodrome Forecast
Issued by NWS

Home | Current Version | Previous Version | Text Only | Print | Product List | Glossary On
Versions: 1 2 3 4 5 6 7 8 9 10 11 12 13 14 15 16
000
FTUS43 KMPX 212015 AAA
TAFAXN
TAF AMD
KAXN 212015Z 2120/2218 23008KT P6SM BKN010
     FM212200 30006KT P6SM SCT100
     FM220300 33008KT P6SM SKC
     FM221600 31014G22KT P6SM SKC=

USA.gov is the U.S. government's official web portal to all federal, state and local government web resources and services.